createdAt,value
2017-08-01T00:01:37.144Z,3.93
2017-08-01T00:04:04.782Z,4.50
2017-08-01T00:06:32.593Z,3.77
2017-08-01T00:09:00.225Z,4.53
2017-08-01T00:11:27.880Z,4.50
2017-08-01T00:13:55.488Z,4.13
2017-08-01T00:16:23.141Z,4.43
2017-08-01T00:18:50.780Z,3.93
2017-08-01T00:21:18.431Z,4.70
2017-08-01T00:23:46.051Z,4.27
2017-08-01T00:26:13.900Z,4.67
2017-08-01T00:28:41.523Z,4.23
2017-08-01T00:31:09.170Z,4.57
2017-08-01T00:33:36.768Z,4.70
2017-08-01T00:36:04.380Z,4.87
2017-08-01T00:38:31.962Z,4.93
2017-08-01T00:40:59.751Z,4.87
2017-08-01T00:43:27.366Z,4.90
2017-08-01T00:45:55.188Z,4.80
2017-08-01T00:48:22.804Z,5.40
2017-08-01T00:50:50.536Z,5.10
2017-08-01T00:53:18.168Z,4.83
2017-08-01T00:55:45.879Z,4.03
2017-08-01T00:58:13.488Z,5.20
2017-08-01T01:00:41.114Z,5.17
2017-08-01T01:03:08.831Z,5.40
2017-08-01T01:05:36.618Z,5.50
2017-08-01T01:08:04.217Z,5.57
2017-08-01T01:10:31.950Z,5.07
2017-08-01T01:12:59.573Z,4.57
2017-08-01T01:15:27.215Z,5.57
2017-08-01T01:17:54.813Z,4.87
2017-08-01T01:20:22.456Z,4.60
2017-08-01T01:22:50.083Z,5.00
2017-08-01T01:25:17.740Z,4.93
2017-08-01T01:27:45.397Z,4.70
2017-08-01T01:30:13.042Z,5.90
2017-08-01T01:32:40.667Z,4.33
2017-08-01T01:35:08.554Z,5.27
2017-08-01T01:37:36.552Z,4.80
2017-08-01T01:40:04.170Z,4.77
2017-08-01T01:42:31.809Z,4.97
2017-08-01T01:44:59.542Z,4.93
2017-08-01T01:47:27.175Z,4.70
2017-08-01T01:49:54.800Z,4.20
2017-08-01T01:52:22.431Z,5.10
2017-08-01T01:54:50.038Z,4.20
2017-08-01T01:57:17.699Z,4.57
2017-08-01T01:59:45.481Z,4.33
2017-08-01T02:02:13.327Z,4.70
2017-08-01T02:04:41.104Z,4.30
2017-08-01T02:07:08.737Z,4.50
2017-08-01T02:09:36.408Z,4.97
2017-08-01T02:12:04.021Z,5.10
2017-08-01T02:14:31.633Z,4.73
2017-08-01T02:16:59.251Z,5.37
2017-08-01T02:19:26.885Z,5.93
2017-08-01T02:21:54.515Z,5.10
2017-08-01T02:24:22.120Z,4.90
2017-08-01T02:26:49.872Z,5.10
2017-08-01T02:29:17.490Z,5.20
2017-08-01T02:31:45.329Z,4.90
2017-08-01T02:34:13.116Z,5.57
2017-08-01T02:36:40.741Z,4.70
2017-08-01T02:39:08.368Z,5.50
2017-08-01T02:41:36.014Z,5.30
2017-08-01T02:44:03.660Z,5.53
2017-08-01T02:46:31.289Z,5.23
2017-08-01T02:49:05.102Z,5.10
2017-08-01T02:51:32.747Z,4.80
2017-08-01T02:54:00.359Z,5.20
2017-08-01T02:56:27.989Z,4.77
2017-08-01T02:58:55.656Z,5.00
2017-08-01T03:01:23.402Z,5.70
2017-08-01T03:03:51.141Z,5.30
2017-08-01T03:06:18.772Z,5.40
2017-08-01T03:08:46.389Z,5.97
2017-08-01T03:11:14.010Z,5.27
2017-08-01T03:13:41.638Z,5.30
2017-08-01T03:16:09.294Z,4.93
2017-08-01T03:18:36.928Z,4.63
2017-08-01T03:21:04.628Z,5.20
2017-08-01T03:23:32.275Z,5.03
2017-08-01T03:25:59.880Z,5.67
2017-08-01T03:28:27.606Z,5.07
2017-08-01T03:30:55.230Z,4.97
2017-08-01T03:33:22.847Z,5.53
2017-08-01T03:35:50.460Z,5.90
2017-08-01T03:38:18.089Z,6.20
2017-08-01T03:40:45.702Z,5.60
2017-08-01T03:43:13.340Z,6.50
2017-08-01T03:45:41.112Z,6.20
2017-08-01T03:48:08.757Z,5.73
2017-08-01T03:50:36.337Z,5.93
2017-08-01T03:53:03.979Z,5.37
2017-08-01T03:55:31.634Z,5.30
2017-08-01T03:57:59.284Z,5.90
2017-08-01T04:00:26.909Z,5.50
2017-08-01T04:02:55.013Z,4.83
2017-08-01T04:05:22.637Z,4.47
2017-08-01T04:07:50.293Z,5.27
2017-08-01T04:10:17.943Z,5.23
2017-08-01T04:12:45.835Z,6.27
2017-08-01T04:15:13.455Z,5.30
2017-08-01T04:17:41.106Z,4.13
2017-08-01T04:20:08.758Z,5.20
2017-08-01T04:22:36.418Z,5.50
2017-08-01T04:25:04.068Z,5.87
2017-08-01T04:27:31.702Z,4.77
2017-08-01T04:29:59.367Z,5.30
2017-08-01T04:32:27.019Z,5.83
2017-08-01T04:34:54.756Z,5.73
2017-08-01T04:37:22.797Z,6.17
2017-08-01T04:39:50.594Z,6.90
2017-08-01T04:42:19.563Z,6.53
2017-08-01T04:44:59.036Z,5.40
2017-08-01T04:47:27.084Z,6.03
2017-08-01T04:49:54.737Z,6.40
2017-08-01T04:52:22.360Z,6.20
2017-08-01T04:54:50.082Z,6.20
2017-08-01T04:57:17.709Z,6.33
2017-08-01T04:59:45.497Z,5.57
2017-08-01T05:02:13.124Z,6.50
2017-08-01T05:04:40.889Z,7.07
2017-08-01T05:07:08.487Z,8.67
2017-08-01T05:09:36.154Z,9.00
2017-08-01T05:12:03.924Z,8.27
2017-08-01T05:14:31.571Z,7.53
2017-08-01T05:16:59.196Z,8.37
2017-08-01T05:19:26.825Z,7.73
2017-08-01T05:21:54.503Z,9.40
2017-08-01T05:24:22.230Z,8.47
2017-08-01T05:26:49.943Z,8.27
2017-08-01T05:29:17.570Z,9.23
2017-08-01T05:31:45.224Z,9.10
2017-08-01T05:34:12.928Z,8.03
2017-08-01T05:36:40.571Z,8.87
2017-08-01T05:39:08.226Z,8.63
2017-08-01T05:41:35.855Z,8.70
2017-08-01T05:44:03.511Z,8.00
2017-08-01T05:46:31.328Z,8.00
2017-08-01T05:48:58.973Z,8.13
2017-08-01T05:51:26.595Z,7.97
2017-08-01T05:53:54.319Z,8.40
2017-08-01T05:56:21.976Z,8.03
2017-08-01T05:58:49.944Z,7.90
2017-08-01T06:01:17.681Z,7.53
2017-08-01T06:03:45.307Z,7.97
2017-08-01T06:06:12.920Z,8.07
2017-08-01T06:08:40.682Z,7.70
2017-08-01T06:11:09.519Z,7.70
2017-08-01T06:13:37.243Z,7.30
2017-08-01T06:16:04.858Z,7.07
2017-08-01T06:18:32.531Z,6.90
2017-08-01T06:21:00.207Z,8.00
2017-08-01T06:23:27.843Z,7.30
2017-08-01T06:25:55.655Z,6.10
2017-08-01T06:28:23.304Z,6.30
2017-08-01T06:30:50.947Z,5.97
2017-08-01T06:33:18.699Z,6.50
2017-08-01T06:35:46.364Z,6.20
2017-08-01T06:38:13.989Z,6.47
2017-08-01T06:40:42.030Z,6.87
2017-08-01T06:43:09.645Z,6.20
2017-08-01T06:45:37.309Z,5.80
2017-08-01T06:48:05.075Z,6.23
2017-08-01T06:50:32.736Z,5.40
2017-08-01T06:53:00.429Z,5.60
2017-08-01T06:55:28.075Z,5.30
2017-08-01T06:57:55.686Z,4.80
2017-08-01T07:00:23.339Z,5.50
2017-08-01T07:02:50.944Z,6.10
2017-08-01T07:05:18.591Z,4.80
2017-08-01T07:07:46.230Z,5.27
2017-08-01T07:10:13.864Z,5.07
2017-08-01T07:12:41.504Z,4.97
2017-08-01T07:15:09.148Z,5.03
2017-08-01T07:17:36.730Z,5.30
2017-08-01T07:20:04.373Z,5.27
2017-08-01T07:22:31.975Z,4.60
2017-08-01T07:24:59.824Z,5.50
2017-08-01T07:27:27.454Z,4.60
2017-08-01T07:29:55.409Z,4.80
2017-08-01T07:32:23.150Z,4.67
2017-08-01T07:34:50.784Z,4.70
2017-08-01T07:37:18.397Z,4.70
2017-08-01T07:39:46.161Z,5.47
2017-08-01T07:42:13.801Z,4.23
2017-08-01T07:44:41.806Z,4.50
2017-08-01T07:47:09.561Z,5.20
2017-08-01T07:49:37.221Z,4.73
2017-08-01T07:52:05.081Z,4.93
2017-08-01T07:54:32.836Z,4.70
2017-08-01T07:57:00.487Z,4.50
2017-08-01T07:59:28.447Z,5.20
2017-08-01T08:01:56.050Z,4.30
2017-08-01T08:04:23.657Z,4.80
2017-08-01T08:06:51.301Z,4.37
2017-08-01T08:09:18.931Z,4.53
2017-08-01T08:11:46.598Z,4.17
2017-08-01T08:14:14.240Z,5.07
2017-08-01T08:16:41.960Z,4.70
2017-08-01T08:19:09.546Z,4.50
2017-08-01T08:21:37.192Z,3.83
2017-08-01T08:24:04.804Z,4.60
2017-08-01T08:26:32.462Z,4.57
2017-08-01T08:29:00.092Z,4.50
2017-08-01T08:31:27.736Z,4.10
2017-08-01T08:33:55.383Z,4.60
2017-08-01T08:36:23.009Z,4.27
2017-08-01T08:38:50.754Z,4.67
2017-08-01T08:41:18.989Z,5.20
2017-08-01T08:43:46.590Z,4.30
2017-08-01T08:46:14.254Z,4.67
2017-08-01T08:48:42.004Z,4.60
2017-08-01T08:51:09.665Z,4.10
2017-08-01T08:53:37.272Z,4.60
2017-08-01T08:56:04.935Z,4.67
2017-08-01T08:58:32.551Z,4.67
2017-08-01T09:01:00.211Z,4.53
2017-08-01T09:03:27.837Z,4.50
2017-08-01T09:05:55.459Z,4.53
2017-08-01T09:08:23.103Z,4.60
2017-08-01T09:10:50.915Z,5.37
2017-08-01T09:13:18.617Z,5.23
2017-08-01T09:15:46.222Z,4.87
2017-08-01T09:18:13.884Z,5.30
2017-08-01T09:20:42.337Z,5.30
2017-08-01T09:23:09.978Z,4.70
2017-08-01T09:25:37.622Z,4.97
2017-08-01T09:28:05.338Z,5.37
2017-08-01T09:30:32.973Z,4.87
2017-08-01T09:33:00.632Z,4.70
2017-08-01T09:35:28.262Z,4.10
2017-08-01T09:37:55.936Z,4.80
2017-08-01T09:40:23.667Z,5.40
2017-08-01T09:42:51.321Z,5.27
2017-08-01T09:45:19.056Z,5.10
2017-08-01T09:47:46.744Z,4.97
2017-08-01T09:50:14.366Z,4.80
2017-08-01T09:52:42.017Z,5.63
2017-08-01T09:55:09.640Z,4.80
2017-08-01T09:57:37.371Z,4.50
2017-08-01T10:00:05.015Z,4.57
2017-08-01T10:02:32.637Z,4.77
2017-08-01T10:05:00.411Z,5.23
2017-08-01T10:07:28.153Z,4.30
2017-08-01T10:09:55.776Z,5.67
2017-08-01T10:12:23.431Z,4.27
2017-08-01T10:14:51.044Z,4.77
2017-08-01T10:17:18.712Z,5.43
2017-08-01T10:19:46.304Z,4.80
2017-08-01T10:22:13.939Z,4.90
2017-08-01T10:24:41.562Z,4.57
2017-08-01T10:27:09.206Z,5.10
2017-08-01T10:29:36.972Z,4.63
2017-08-01T10:32:04.593Z,4.47
2017-08-01T10:34:32.201Z,5.80
2017-08-01T10:36:59.853Z,4.97
2017-08-01T10:39:27.448Z,4.90
2017-08-01T10:41:55.494Z,5.10
2017-08-01T10:44:23.111Z,4.57
2017-08-01T10:46:50.823Z,4.70
2017-08-01T10:49:18.482Z,4.50
2017-08-01T10:51:46.112Z,4.83
2017-08-01T10:54:13.936Z,5.20
2017-08-01T10:56:41.692Z,4.67
2017-08-01T10:59:09.353Z,4.97
2017-08-01T11:01:37.094Z,4.90
2017-08-01T11:04:04.730Z,4.87
2017-08-01T11:06:32.427Z,5.17
2017-08-01T11:09:00.188Z,4.80
2017-08-01T11:11:27.835Z,5.40
2017-08-01T11:13:55.507Z,4.70
2017-08-01T11:16:23.092Z,4.70
2017-08-01T11:18:50.740Z,5.00
2017-08-01T11:21:18.398Z,4.73
2017-08-01T11:23:46.024Z,4.73
2017-08-01T11:26:14.311Z,5.00
2017-08-01T11:28:42.088Z,4.50
2017-08-01T11:31:09.759Z,5.30
2017-08-01T11:33:37.807Z,5.30
2017-08-01T11:36:05.527Z,4.80
2017-08-01T11:38:33.470Z,4.97
2017-08-01T11:41:01.043Z,5.30
2017-08-01T11:43:28.692Z,5.53
2017-08-01T11:45:56.303Z,4.80
2017-08-01T11:48:23.953Z,4.53
2017-08-01T11:50:51.602Z,4.93
2017-08-01T11:53:19.259Z,5.00
2017-08-01T11:55:46.888Z,4.50
2017-08-01T11:58:14.537Z,4.73
2017-08-01T12:00:43.922Z,5.00
2017-08-01T12:03:11.575Z,4.90
2017-08-01T12:05:39.478Z,5.10
2017-08-01T12:08:07.138Z,4.60
2017-08-01T12:10:36.018Z,4.30
2017-08-01T12:13:05.025Z,5.10
2017-08-01T12:15:32.664Z,4.77
2017-08-01T12:18:00.356Z,4.30
2017-08-01T12:20:28.106Z,4.60
2017-08-01T12:22:55.758Z,4.83
2017-08-01T12:25:23.514Z,4.47
2017-08-01T12:27:51.455Z,4.67
2017-08-01T12:30:19.115Z,5.10
2017-08-01T12:32:46.723Z,4.83
2017-08-01T12:35:14.353Z,4.63
2017-08-01T12:37:42.321Z,5.33
2017-08-01T12:40:09.962Z,4.63
2017-08-01T12:42:37.606Z,4.60
2017-08-01T12:45:06.637Z,5.67
2017-08-01T12:47:34.257Z,5.40
2017-08-01T12:50:01.927Z,5.03
2017-08-01T12:52:29.583Z,5.20
2017-08-01T12:54:57.268Z,5.27
2017-08-01T12:57:24.953Z,4.83
2017-08-01T12:59:52.596Z,3.90
2017-08-01T13:02:20.435Z,4.60
2017-08-01T13:04:48.079Z,4.50
2017-08-01T13:07:15.703Z,4.53
2017-08-01T13:09:43.409Z,4.50
2017-08-01T13:12:11.068Z,4.70
2017-08-01T13:14:38.753Z,4.20
2017-08-01T13:17:06.364Z,4.70
2017-08-01T13:19:34.053Z,4.70
2017-08-01T13:22:01.680Z,4.77
2017-08-01T13:24:29.375Z,4.93
2017-08-01T13:26:57.606Z,4.20
2017-08-01T13:29:25.264Z,4.40
2017-08-01T13:31:52.876Z,5.07
2017-08-01T13:34:20.642Z,4.23
2017-08-01T13:36:48.651Z,4.53
2017-08-01T13:39:16.292Z,4.23
2017-08-01T13:41:43.902Z,4.10
2017-08-01T13:44:11.893Z,4.00
2017-08-01T13:46:39.580Z,4.47
2017-08-01T13:49:07.202Z,4.83
2017-08-01T13:51:34.829Z,4.10
2017-08-01T13:54:02.441Z,4.43
2017-08-01T13:56:31.522Z,4.20
2017-08-01T13:58:59.249Z,4.40
2017-08-01T14:01:26.912Z,4.70
2017-08-01T14:03:54.538Z,4.50
2017-08-01T14:06:22.188Z,4.47
2017-08-01T14:08:49.913Z,4.53
2017-08-01T14:11:17.639Z,4.50
2017-08-01T14:13:45.270Z,4.23
2017-08-01T14:16:12.919Z,4.47
2017-08-01T14:18:40.546Z,3.62
2017-08-01T14:21:08.272Z,4.32
2017-08-01T14:23:35.893Z,4.45
2017-08-01T14:26:03.546Z,4.40
2017-08-01T14:28:31.194Z,4.40
2017-08-01T14:30:58.915Z,4.68
2017-08-01T14:33:26.528Z,4.47
2017-08-01T14:35:54.163Z,4.25
2017-08-01T14:38:21.789Z,4.00
2017-08-01T14:40:49.488Z,3.80
2017-08-01T14:43:17.114Z,3.90
2017-08-01T14:45:44.782Z,4.15
2017-08-01T14:48:12.419Z,4.40
2017-08-01T14:50:40.094Z,4.12
2017-08-01T14:53:07.935Z,4.32
2017-08-01T14:55:35.621Z,4.15
2017-08-01T14:58:03.245Z,3.85
2017-08-01T15:00:30.959Z,4.20
2017-08-01T15:02:58.903Z,4.22
2017-08-01T15:05:26.563Z,4.25
2017-08-01T15:07:54.294Z,4.32
2017-08-01T15:10:21.968Z,3.87
2017-08-01T15:12:50.948Z,3.97
2017-08-01T15:15:18.575Z,3.87
2017-08-01T15:17:46.284Z,4.10
2017-08-01T15:20:13.915Z,4.37
2017-08-01T15:22:41.739Z,4.18
2017-08-01T15:25:09.432Z,3.97
2017-08-01T15:27:38.388Z,3.40
2017-08-01T15:30:06.087Z,4.00
2017-08-01T15:32:33.851Z,5.10
2017-08-01T15:35:01.485Z,4.37
2017-08-01T15:37:29.319Z,4.40
2017-08-01T15:39:57.035Z,3.72
2017-08-01T15:42:24.824Z,4.68
2017-08-01T15:44:52.456Z,4.25
2017-08-01T15:47:20.247Z,4.37
2017-08-01T15:49:47.853Z,4.50
2017-08-01T15:52:15.487Z,4.15
2017-08-01T15:54:43.373Z,4.32
2017-08-01T15:57:11.008Z,4.15
2017-08-01T15:59:38.704Z,4.82
2017-08-01T16:02:06.563Z,4.17
2017-08-01T16:04:34.677Z,4.60
2017-08-01T16:07:02.451Z,4.80
2017-08-01T16:09:30.100Z,4.85
2017-08-01T16:11:57.980Z,6.07
2017-08-01T16:14:25.616Z,4.83
2017-08-01T16:16:53.299Z,4.93
2017-08-01T16:19:20.925Z,4.25
2017-08-01T16:21:50.234Z,4.40
2017-08-01T16:24:17.867Z,4.67
2017-08-01T16:26:45.527Z,4.60
2017-08-01T16:29:13.141Z,4.43
2017-08-01T16:31:40.794Z,4.77
2017-08-01T16:34:08.503Z,4.67
2017-08-01T16:36:36.512Z,5.10
2017-08-01T16:39:04.830Z,4.30
2017-08-01T16:41:32.518Z,4.80
2017-08-01T16:44:00.249Z,5.33
2017-08-01T16:46:27.869Z,5.40
2017-08-01T16:48:55.619Z,4.90
2017-08-01T16:51:23.241Z,5.00
2017-08-01T16:53:50.900Z,4.70
2017-08-01T16:56:19.583Z,5.23
2017-08-01T16:58:47.378Z,4.80
2017-08-01T17:01:15.042Z,5.10
2017-08-01T17:03:42.799Z,5.00
2017-08-01T17:06:10.535Z,5.43
2017-08-01T17:08:38.561Z,5.70
2017-08-01T17:11:06.184Z,5.30
2017-08-01T17:13:33.923Z,4.70
2017-08-01T17:16:01.591Z,5.57
2017-08-01T17:18:29.361Z,5.70
2017-08-01T17:20:57.046Z,5.80
2017-08-01T17:23:24.658Z,5.23
2017-08-01T17:25:52.597Z,5.20
2017-08-01T17:28:20.340Z,5.80
2017-08-01T17:30:48.068Z,5.70
2017-08-01T17:33:15.687Z,5.73
2017-08-01T17:35:43.311Z,4.90
2017-08-01T17:38:10.961Z,5.30
2017-08-01T17:40:38.583Z,5.93
2017-08-01T17:43:06.234Z,6.40
2017-08-01T17:45:33.853Z,5.93
2017-08-01T17:48:01.945Z,6.20
2017-08-01T17:50:29.667Z,6.10
2017-08-01T17:52:57.266Z,7.20
2017-08-01T17:55:24.924Z,7.40
2017-08-01T17:57:52.577Z,7.00
2017-08-01T18:00:20.223Z,6.77
2017-08-01T18:02:47.866Z,6.70
2017-08-01T18:05:15.524Z,7.13
2017-08-01T18:07:43.146Z,6.73
2017-08-01T18:10:10.785Z,7.10
2017-08-01T18:12:38.433Z,7.10
2017-08-01T18:15:06.113Z,6.97
2017-08-01T18:17:33.734Z,7.23
2017-08-01T18:20:01.399Z,6.97
2017-08-01T18:22:29.155Z,7.37
2017-08-01T18:24:56.809Z,7.97
2017-08-01T18:27:24.448Z,8.03
2017-08-01T18:29:52.091Z,7.90
2017-08-01T18:32:19.757Z,7.77
2017-08-01T18:34:47.423Z,7.87
2017-08-01T18:37:15.155Z,8.83
2017-08-01T18:39:42.939Z,7.57
2017-08-01T18:42:10.584Z,7.90
2017-08-01T18:44:38.261Z,7.30
2017-08-01T18:47:05.898Z,6.60
2017-08-01T18:49:33.601Z,6.57
2017-08-01T18:52:01.238Z,6.87
2017-08-01T18:54:28.929Z,7.00
2017-08-01T18:56:56.568Z,6.63
2017-08-01T18:59:24.236Z,6.87
2017-08-01T19:01:52.015Z,6.67
2017-08-01T19:04:19.694Z,6.53
2017-08-01T19:06:47.328Z,6.67
2017-08-01T19:09:15.627Z,7.00
2017-08-01T19:11:43.346Z,6.80
2017-08-01T19:14:11.125Z,6.07
2017-08-01T19:16:40.034Z,5.30
2017-08-01T19:19:09.085Z,5.80
2017-08-01T19:21:36.872Z,6.60
2017-08-01T19:24:04.619Z,6.33
2017-08-01T19:26:33.453Z,6.63
2017-08-01T19:29:01.342Z,7.80
2017-08-01T19:31:29.497Z,7.60
2017-08-01T19:33:57.253Z,7.53
2017-08-01T19:36:24.982Z,8.43
2017-08-01T19:38:52.660Z,9.20
2017-08-01T19:41:20.447Z,7.80
2017-08-01T19:43:48.146Z,9.07
2017-08-01T19:46:15.957Z,10.27
2017-08-01T19:48:43.610Z,8.87
2017-08-01T19:51:12.535Z,8.30
2017-08-01T19:53:40.181Z,7.93
2017-08-01T19:56:08.019Z,8.00
2017-08-01T19:58:35.657Z,8.00
2017-08-01T20:01:03.305Z,8.33
2017-08-01T20:03:30.941Z,8.90
2017-08-01T20:05:58.789Z,8.10
2017-08-01T20:08:26.443Z,8.70
2017-08-01T20:10:54.117Z,7.63
2017-08-01T20:13:21.908Z,8.50
2017-08-01T20:15:49.582Z,8.13
2017-08-01T20:18:17.200Z,8.20
2017-08-01T20:20:45.107Z,7.50
2017-08-01T20:23:12.726Z,7.40
2017-08-01T20:25:41.288Z,7.40
2017-08-01T20:28:09.370Z,8.00
2017-08-01T20:30:37.148Z,7.50
2017-08-01T20:33:04.778Z,7.10
2017-08-01T20:35:32.508Z,7.30
2017-08-01T20:38:00.250Z,7.77
2017-08-01T20:40:28.281Z,9.03
2017-08-01T20:42:55.895Z,7.63
2017-08-01T20:45:23.558Z,8.23
2017-08-01T20:47:51.238Z,8.23
2017-08-01T20:50:18.867Z,8.43
2017-08-01T20:52:46.553Z,7.67
2017-08-01T20:55:14.206Z,8.60
2017-08-01T20:57:41.977Z,8.50
2017-08-01T21:00:09.838Z,7.60
2017-08-01T21:02:37.572Z,8.50
2017-08-01T21:05:05.210Z,7.77
2017-08-01T21:07:32.858Z,8.33
2017-08-01T21:10:00.605Z,8.93
2017-08-01T21:12:28.320Z,8.13
2017-08-01T21:14:55.934Z,7.80
2017-08-01T21:17:23.757Z,8.03
2017-08-01T21:19:51.359Z,8.10
2017-08-01T21:22:19.173Z,8.07
2017-08-01T21:24:47.057Z,8.60
2017-08-01T21:27:14.814Z,8.50
2017-08-01T21:29:42.425Z,8.00
2017-08-01T21:32:10.085Z,8.60
2017-08-01T21:34:37.811Z,8.50
2017-08-01T21:37:05.476Z,8.63
2017-08-01T21:39:33.092Z,8.00
2017-08-01T21:42:00.718Z,8.50
2017-08-01T21:44:28.385Z,9.40
2017-08-01T21:46:56.019Z,8.80
2017-08-01T21:49:23.728Z,8.90
2017-08-01T21:51:51.439Z,8.63
2017-08-01T21:54:19.147Z,8.00
2017-08-01T21:56:46.828Z,9.40
2017-08-01T21:59:14.456Z,8.57
2017-08-01T22:01:42.419Z,7.93
2017-08-01T22:04:10.040Z,8.00
2017-08-01T22:06:38.863Z,8.10
2017-08-01T22:09:06.503Z,7.20
2017-08-01T22:11:34.538Z,9.13
2017-08-01T22:14:02.142Z,5.70
2017-08-01T22:16:29.776Z,8.00
2017-08-01T22:18:57.411Z,6.87
2017-08-01T22:21:25.027Z,6.10
2017-08-01T22:23:52.747Z,6.00
2017-08-01T22:26:20.380Z,5.47
2017-08-01T22:28:48.019Z,6.43
2017-08-01T22:31:15.645Z,5.83
2017-08-01T22:33:43.296Z,6.00
2017-08-01T22:36:10.957Z,5.80
2017-08-01T22:38:38.606Z,5.00
2017-08-01T22:41:07.232Z,5.30
2017-08-01T22:43:34.898Z,6.00
2017-08-01T22:46:02.498Z,5.67
2017-08-01T22:48:30.159Z,5.47
2017-08-01T22:50:57.798Z,5.40
2017-08-01T22:53:25.455Z,5.53
2017-08-01T22:55:53.060Z,5.43
2017-08-01T22:58:20.706Z,5.27
2017-08-01T23:00:48.330Z,5.43
2017-08-01T23:03:15.979Z,5.17
2017-08-01T23:05:43.615Z,5.53
2017-08-01T23:08:11.389Z,6.23
2017-08-01T23:10:39.189Z,5.47
2017-08-01T23:13:06.865Z,5.00
2017-08-01T23:15:34.557Z,5.57
2017-08-01T23:18:02.220Z,5.70
2017-08-01T23:20:29.870Z,6.80
2017-08-01T23:22:57.616Z,5.50
2017-08-01T23:25:25.242Z,7.00
2017-08-01T23:27:52.909Z,5.30
2017-08-01T23:30:20.530Z,5.70
2017-08-01T23:32:48.363Z,5.70
2017-08-01T23:35:15.983Z,6.40
2017-08-01T23:37:43.644Z,6.17
2017-08-01T23:40:11.261Z,5.90
2017-08-01T23:42:38.892Z,5.80
2017-08-01T23:45:06.619Z,5.73
2017-08-01T23:47:34.344Z,6.00
2017-08-01T23:50:02.092Z,5.33
2017-08-01T23:52:29.716Z,5.87
2017-08-01T23:54:57.355Z,6.00
2017-08-01T23:57:25.003Z,6.40
2017-08-01T23:59:52.665Z,6.20
